sensor_id;sensor_type;location;lat;lon;timestamp;P1;durP1;ratioP1;P2;durP2;ratioP2
35022;SDS011;21214;44.912;8.204;2022-08-01T00:00:29;2.20;;;1.92;;
35022;SDS011;21214;44.912;8.204;2022-08-01T00:02:55;5.03;;;1.55;;
35022;SDS011;21214;44.912;8.204;2022-08-01T00:05:21;3.42;;;1.85;;
35022;SDS011;21214;44.912;8.204;2022-08-01T00:07:46;2.45;;;1.80;;
35022;SDS011;21214;44.912;8.204;2022-08-01T00:10:12;3.70;;;2.10;;
35022;SDS011;21214;44.912;8.204;2022-08-01T00:12:40;2.00;;;1.90;;
35022;SDS011;21214;44.912;8.204;2022-08-01T00:15:07;3.42;;;1.83;;
35022;SDS011;21214;44.912;8.204;2022-08-01T00:17:34;3.08;;;1.70;;
35022;SDS011;21214;44.912;8.204;2022-08-01T00:20:00;3.63;;;1.75;;
35022;SDS011;21214;44.912;8.204;2022-08-01T00:22:27;2.72;;;1.85;;
35022;SDS011;21214;44.912;8.204;2022-08-01T00:24:53;5.72;;;2.22;;
35022;SDS011;21214;44.912;8.204;2022-08-01T00:27:19;2.10;;;1.90;;
35022;SDS011;21214;44.912;8.204;2022-08-01T00:29:44;2.45;;;1.70;;
35022;SDS011;21214;44.912;8.204;2022-08-01T00:32:10;2.92;;;1.80;;
35022;SDS011;21214;44.912;8.204;2022-08-01T00:34:35;2.25;;;2.03;;
35022;SDS011;21214;44.912;8.204;2022-08-01T00:37:01;5.47;;;1.85;;
35022;SDS011;21214;44.912;8.204;2022-08-01T00:39:27;2.47;;;2.28;;
35022;SDS011;21214;44.912;8.204;2022-08-01T00:41:52;2.65;;;2.10;;
35022;SDS011;21214;44.912;8.204;2022-08-01T00:44:18;2.45;;;1.67;;
35022;SDS011;21214;44.912;8.204;2022-08-01T00:46:44;1.88;;;1.77;;
35022;SDS011;21214;44.912;8.204;2022-08-01T00:49:09;2.38;;;2.08;;
35022;SDS011;21214;44.912;8.204;2022-08-01T00:51:35;2.10;;;1.90;;
35022;SDS011;21214;44.912;8.204;2022-08-01T00:54:02;2.63;;;2.10;;
35022;SDS011;21214;44.912;8.204;2022-08-01T00:56:28;4.43;;;1.80;;
35022;SDS011;21214;44.912;8.204;2022-08-01T00:58:54;1.95;;;1.85;;
35022;SDS011;21214;44.912;8.204;2022-08-01T01:01:20;3.03;;;1.98;;
35022;SDS011;21214;44.912;8.204;2022-08-01T01:03:50;2.08;;;1.85;;
35022;SDS011;21214;44.912;8.204;2022-08-01T01:08:55;1.92;;;1.55;;
35022;SDS011;21214;44.912;8.204;2022-08-01T01:11:36;2.55;;;1.58;;
35022;SDS011;21214;44.912;8.204;2022-08-01T01:14:23;2.78;;;1.80;;
35022;SDS011;21214;44.912;8.204;2022-08-01T01:16:58;1.80;;;1.50;;
35022;SDS011;21214;44.912;8.204;2022-08-01T01:19:28;1.85;;;1.75;;
35022;SDS011;21214;44.912;8.204;2022-08-01T01:22:18;2.83;;;1.92;;
35022;SDS011;21214;44.912;8.204;2022-08-01T01:25:14;7.05;;;1.90;;
35022;SDS011;21214;44.912;8.204;2022-08-01T01:27:50;4.75;;;2.00;;
35022;SDS011;21214;44.912;8.204;2022-08-01T01:30:23;2.75;;;2.55;;
35022;SDS011;21214;44.912;8.204;2022-08-01T01:32:51;1.85;;;1.73;;
35022;SDS011;21214;44.912;8.204;2022-08-01T01:35:30;2.58;;;1.80;;
35022;SDS011;21214;44.912;8.204;2022-08-01T01:38:07;1.90;;;1.80;;
35022;SDS011;21214;44.912;8.204;2022-08-01T01:40:45;2.03;;;1.83;;
35022;SDS011;21214;44.912;8.204;2022-08-01T01:43:15;2.58;;;1.63;;
35022;SDS011;21214;44.912;8.204;2022-08-01T01:45:41;1.85;;;1.42;;
35022;SDS011;21214;44.912;8.204;2022-08-01T01:48:11;4.25;;;1.88;;
35022;SDS011;21214;44.912;8.204;2022-08-01T01:50:41;2.55;;;1.40;;
35022;SDS011;21214;44.912;8.204;2022-08-01T01:55:38;2.33;;;1.60;;
35022;SDS011;21214;44.912;8.204;2022-08-01T01:58:06;1.80;;;1.70;;
35022;SDS011;21214;44.912;8.204;2022-08-01T02:00:35;2.30;;;1.50;;
35022;SDS011;21214;44.912;8.204;2022-08-01T02:03:03;1.98;;;1.85;;
35022;SDS011;21214;44.912;8.204;2022-08-01T02:05:30;1.80;;;1.48;;
35022;SDS011;21214;44.912;8.204;2022-08-01T02:08:01;1.50;;;1.40;;
35022;SDS011;21214;44.912;8.204;2022-08-01T02:10:29;1.63;;;1.42;;
35022;SDS011;21214;44.912;8.204;2022-08-01T02:12:57;2.40;;;1.60;;
35022;SDS011;21214;44.912;8.204;2022-08-01T02:15:24;3.53;;;2.00;;
35022;SDS011;21214;44.912;8.204;2022-08-01T02:17:51;2.22;;;2.03;;
35022;SDS011;21214;44.912;8.204;2022-08-01T02:20:20;2.10;;;1.90;;
35022;SDS011;21214;44.912;8.204;2022-08-01T02:22:47;5.38;;;2.13;;
35022;SDS011;21214;44.912;8.204;2022-08-01T02:25:34;5.25;;;1.90;;
35022;SDS011;21214;44.912;8.204;2022-08-01T02:28:53;1.88;;;1.77;;
35022;SDS011;21214;44.912;8.204;2022-08-01T02:30:56;4.13;;;2.20;;
35022;SDS011;21214;44.912;8.204;2022-08-01T02:33:30;3.15;;;1.80;;
35022;SDS011;21214;44.912;8.204;2022-08-01T02:36:02;2.08;;;1.90;;
35022;SDS011;21214;44.912;8.204;2022-08-01T02:38:28;6.05;;;2.17;;
35022;SDS011;21214;44.912;8.204;2022-08-01T02:40:57;3.25;;;2.03;;
35022;SDS011;21214;44.912;8.204;2022-08-01T02:43:28;3.72;;;2.00;;
35022;SDS011;21214;44.912;8.204;2022-08-01T02:45:58;2.22;;;2.10;;
35022;SDS011;21214;44.912;8.204;2022-08-01T02:48:26;3.22;;;2.08;;
35022;SDS011;21214;44.912;8.204;2022-08-01T02:50:55;3.50;;;1.92;;
35022;SDS011;21214;44.912;8.204;2022-08-01T02:53:24;2.50;;;2.30;;
35022;SDS011;21214;44.912;8.204;2022-08-01T02:55:53;3.30;;;2.00;;
35022;SDS011;21214;44.912;8.204;2022-08-01T02:58:20;2.63;;;1.98;;
35022;SDS011;21214;44.912;8.204;2022-08-01T03:00:49;2.90;;;2.20;;
35022;SDS011;21214;44.912;8.204;2022-08-01T03:03:15;2.95;;;1.80;;
35022;SDS011;21214;44.912;8.204;2022-08-01T03:05:43;1.98;;;1.70;;
35022;SDS011;21214;44.912;8.204;2022-08-01T03:08:10;2.33;;;2.03;;
35022;SDS011;21214;44.912;8.204;2022-08-01T03:10:38;3.58;;;1.85;;
35022;SDS011;21214;44.912;8.204;2022-08-01T03:13:07;3.90;;;2.17;;
35022;SDS011;21214;44.912;8.204;2022-08-01T03:15:37;3.25;;;2.80;;
35022;SDS011;21214;44.912;8.204;2022-08-01T03:18:06;2.30;;;2.05;;
35022;SDS011;21214;44.912;8.204;2022-08-01T03:20:34;2.17;;;1.98;;
35022;SDS011;21214;44.912;8.204;2022-08-01T03:23:01;2.08;;;1.65;;
35022;SDS011;21214;44.912;8.204;2022-08-01T03:25:30;2.15;;;1.95;;
35022;SDS011;21214;44.912;8.204;2022-08-01T03:27:59;5.10;;;1.83;;
35022;SDS011;21214;44.912;8.204;2022-08-01T03:32:56;2.33;;;2.00;;
35022;SDS011;21214;44.912;8.204;2022-08-01T03:35:23;7.53;;;2.40;;
35022;SDS011;21214;44.912;8.204;2022-08-01T03:37:54;3.13;;;2.13;;
35022;SDS011;21214;44.912;8.204;2022-08-01T03:40:25;3.20;;;1.95;;
35022;SDS011;21214;44.912;8.204;2022-08-01T03:43:02;5.32;;;2.22;;
35022;SDS011;21214;44.912;8.204;2022-08-01T03:45:36;2.47;;;2.10;;
35022;SDS011;21214;44.912;8.204;2022-08-01T03:48:12;6.40;;;2.38;;
35022;SDS011;21214;44.912;8.204;2022-08-01T03:50:41;2.28;;;2.00;;
35022;SDS011;21214;44.912;8.204;2022-08-01T03:53:10;2.47;;;2.08;;
35022;SDS011;21214;44.912;8.204;2022-08-01T03:55:37;2.75;;;2.38;;
35022;SDS011;21214;44.912;8.204;2022-08-01T03:58:04;3.78;;;2.72;;
35022;SDS011;21214;44.912;8.204;2022-08-01T04:00:31;3.22;;;2.40;;
35022;SDS011;21214;44.912;8.204;2022-08-01T04:02:57;2.50;;;2.40;;
35022;SDS011;21214;44.912;8.204;2022-08-01T04:05:26;2.33;;;2.10;;
35022;SDS011;21214;44.912;8.204;2022-08-01T04:07:52;3.92;;;2.22;;
35022;SDS011;21214;44.912;8.204;2022-08-01T04:10:25;2.50;;;2.15;;
35022;SDS011;21214;44.912;8.204;2022-08-01T04:12:51;5.57;;;2.08;;
35022;SDS011;21214;44.912;8.204;2022-08-01T04:15:17;2.38;;;2.17;;
35022;SDS011;21214;44.912;8.204;2022-08-01T04:17:45;4.10;;;2.83;;
35022;SDS011;21214;44.912;8.204;2022-08-01T04:20:12;3.85;;;2.67;;
35022;SDS011;21214;44.912;8.204;2022-08-01T04:22:38;4.35;;;2.20;;
35022;SDS011;21214;44.912;8.204;2022-08-01T04:25:06;3.60;;;2.17;;
35022;SDS011;21214;44.912;8.204;2022-08-01T04:30:02;4.22;;;2.55;;
35022;SDS011;21214;44.912;8.204;2022-08-01T04:32:29;2.60;;;2.40;;
35022;SDS011;21214;44.912;8.204;2022-08-01T04:34:59;2.58;;;2.30;;
35022;SDS011;21214;44.912;8.204;2022-08-01T04:37:27;2.55;;;2.20;;
35022;SDS011;21214;44.912;8.204;2022-08-01T04:39:54;2.65;;;2.45;;
35022;SDS011;21214;44.912;8.204;2022-08-01T04:42:21;4.35;;;2.83;;
35022;SDS011;21214;44.912;8.204;2022-08-01T04:44:47;2.65;;;2.30;;
35022;SDS011;21214;44.912;8.204;2022-08-01T04:47:13;2.67;;;2.47;;
35022;SDS011;21214;44.912;8.204;2022-08-01T04:49:39;2.78;;;2.58;;
35022;SDS011;21214;44.912;8.204;2022-08-01T04:52:06;3.53;;;2.85;;
35022;SDS011;21214;44.912;8.204;2022-08-01T04:54:33;3.92;;;2.50;;
35022;SDS011;21214;44.912;8.204;2022-08-01T04:57:02;2.72;;;2.53;;
35022;SDS011;21214;44.912;8.204;2022-08-01T04:59:31;3.67;;;2.40;;
35022;SDS011;21214;44.912;8.204;2022-08-01T05:02:09;2.85;;;2.33;;
35022;SDS011;21214;44.912;8.204;2022-08-01T05:04:40;2.55;;;2.35;;
35022;SDS011;21214;44.912;8.204;2022-08-01T05:07:06;4.35;;;2.55;;
35022;SDS011;21214;44.912;8.204;2022-08-01T05:09:32;2.63;;;2.42;;
35022;SDS011;21214;44.912;8.204;2022-08-01T05:11:59;2.78;;;2.35;;
35022;SDS011;21214;44.912;8.204;2022-08-01T05:14:26;4.97;;;2.55;;
35022;SDS011;21214;44.912;8.204;2022-08-01T05:16:53;3.53;;;2.38;;
35022;SDS011;21214;44.912;8.204;2022-08-01T05:19:19;7.78;;;3.00;;
35022;SDS011;21214;44.912;8.204;2022-08-01T05:21:45;3.65;;;2.47;;
35022;SDS011;21214;44.912;8.204;2022-08-01T05:24:11;3.75;;;2.78;;
35022;SDS011;21214;44.912;8.204;2022-08-01T05:26:38;6.05;;;2.90;;
35022;SDS011;21214;44.912;8.204;2022-08-01T05:29:04;3.63;;;2.97;;
35022;SDS011;21214;44.912;8.204;2022-08-01T05:31:29;7.43;;;3.35;;
35022;SDS011;21214;44.912;8.204;2022-08-01T05:33:59;4.20;;;3.78;;
35022;SDS011;21214;44.912;8.204;2022-08-01T05:36:25;4.70;;;4.20;;
35022;SDS011;21214;44.912;8.204;2022-08-01T05:38:51;4.20;;;3.90;;
35022;SDS011;21214;44.912;8.204;2022-08-01T05:41:17;4.97;;;3.63;;
35022;SDS011;21214;44.912;8.204;2022-08-01T05:43:42;7.90;;;3.72;;
35022;SDS011;21214;44.912;8.204;2022-08-01T05:46:08;6.38;;;3.70;;
35022;SDS011;21214;44.912;8.204;2022-08-01T05:48:34;3.90;;;3.50;;
35022;SDS011;21214;44.912;8.204;2022-08-01T05:50:59;3.50;;;3.28;;
35022;SDS011;21214;44.912;8.204;2022-08-01T05:53:25;6.32;;;3.78;;
35022;SDS011;21214;44.912;8.204;2022-08-01T05:55:51;4.72;;;4.20;;
35022;SDS011;21214;44.912;8.204;2022-08-01T05:58:17;8.65;;;3.75;;
35022;SDS011;21214;44.912;8.204;2022-08-01T06:00:43;5.22;;;3.70;;
35022;SDS011;21214;44.912;8.204;2022-08-01T06:03:09;4.85;;;4.38;;
35022;SDS011;21214;44.912;8.204;2022-08-01T06:05:36;4.63;;;3.92;;
35022;SDS011;21214;44.912;8.204;2022-08-01T06:08:02;6.15;;;4.10;;
35022;SDS011;21214;44.912;8.204;2022-08-01T06:10:28;4.43;;;3.90;;
35022;SDS011;21214;44.912;8.204;2022-08-01T06:12:53;4.63;;;4.22;;
35022;SDS011;21214;44.912;8.204;2022-08-01T06:15:19;4.13;;;3.78;;
35022;SDS011;21214;44.912;8.204;2022-08-01T06:17:45;3.45;;;3.25;;
35022;SDS011;21214;44.912;8.204;2022-08-01T06:20:10;4.25;;;3.72;;
35022;SDS011;21214;44.912;8.204;2022-08-01T06:22:36;6.60;;;3.72;;
35022;SDS011;21214;44.912;8.204;2022-08-01T06:25:02;7.28;;;3.95;;
35022;SDS011;21214;44.912;8.204;2022-08-01T06:27:28;4.88;;;4.03;;
35022;SDS011;21214;44.912;8.204;2022-08-01T06:29:54;5.40;;;4.65;;
35022;SDS011;21214;44.912;8.204;2022-08-01T06:32:20;5.00;;;4.50;;
35022;SDS011;21214;44.912;8.204;2022-08-01T06:34:47;4.47;;;4.07;;
35022;SDS011;21214;44.912;8.204;2022-08-01T06:37:13;4.78;;;4.10;;
35022;SDS011;21214;44.912;8.204;2022-08-01T06:39:39;5.10;;;4.22;;
35022;SDS011;21214;44.912;8.204;2022-08-01T06:42:05;5.80;;;4.55;;
35022;SDS011;21214;44.912;8.204;2022-08-01T06:44:32;7.75;;;4.30;;
35022;SDS011;21214;44.912;8.204;2022-08-01T06:46:57;3.92;;;3.63;;
35022;SDS011;21214;44.912;8.204;2022-08-01T06:49:26;4.18;;;3.83;;
35022;SDS011;21214;44.912;8.204;2022-08-01T06:51:51;3.88;;;3.58;;
35022;SDS011;21214;44.912;8.204;2022-08-01T06:54:17;4.47;;;4.07;;
35022;SDS011;21214;44.912;8.204;2022-08-01T06:56:43;4.20;;;3.83;;
35022;SDS011;21214;44.912;8.204;2022-08-01T06:59:08;3.80;;;3.55;;
35022;SDS011;21214;44.912;8.204;2022-08-01T07:01:34;4.43;;;3.70;;
35022;SDS011;21214;44.912;8.204;2022-08-01T07:03:59;4.43;;;4.03;;
35022;SDS011;21214;44.912;8.204;2022-08-01T07:06:25;4.28;;;3.60;;
35022;SDS011;21214;44.912;8.204;2022-08-01T07:08:53;4.78;;;3.60;;
35022;SDS011;21214;44.912;8.204;2022-08-01T07:11:20;3.97;;;3.67;;
35022;SDS011;21214;44.912;8.204;2022-08-01T07:13:47;3.72;;;3.42;;
35022;SDS011;21214;44.912;8.204;2022-08-01T07:16:13;5.00;;;3.17;;
35022;SDS011;21214;44.912;8.204;2022-08-01T07:18:39;3.53;;;3.22;;
35022;SDS011;21214;44.912;8.204;2022-08-01T07:21:05;3.90;;;3.22;;
35022;SDS011;21214;44.912;8.204;2022-08-01T07:23:31;4.18;;;3.80;;
35022;SDS011;21214;44.912;8.204;2022-08-01T07:25:56;3.80;;;3.38;;
35022;SDS011;21214;44.912;8.204;2022-08-01T07:28:22;3.75;;;3.20;;
35022;SDS011;21214;44.912;8.204;2022-08-01T07:30:47;3.60;;;3.15;;
35022;SDS011;21214;44.912;8.204;2022-08-01T07:33:13;3.90;;;3.40;;
35022;SDS011;21214;44.912;8.204;2022-08-01T07:35:39;3.85;;;2.63;;
35022;SDS011;21214;44.912;8.204;2022-08-01T07:38:05;4.10;;;3.28;;
35022;SDS011;21214;44.912;8.204;2022-08-01T07:40:33;3.95;;;2.88;;
35022;SDS011;21214;44.912;8.204;2022-08-01T07:42:59;4.57;;;2.80;;
35022;SDS011;21214;44.912;8.204;2022-08-01T07:45:25;2.80;;;2.60;;
35022;SDS011;21214;44.912;8.204;2022-08-01T07:47:51;6.13;;;2.80;;
35022;SDS011;21214;44.912;8.204;2022-08-01T07:50:17;2.60;;;2.40;;
35022;SDS011;21214;44.912;8.204;2022-08-01T07:52:43;3.55;;;2.80;;
35022;SDS011;21214;44.912;8.204;2022-08-01T07:55:09;4.95;;;2.50;;
35022;SDS011;21214;44.912;8.204;2022-08-01T07:57:35;5.35;;;2.63;;
35022;SDS011;21214;44.912;8.204;2022-08-01T08:00:01;4.18;;;2.47;;
35022;SDS011;21214;44.912;8.204;2022-08-01T08:02:29;4.18;;;2.50;;
35022;SDS011;21214;44.912;8.204;2022-08-01T08:04:54;2.92;;;2.13;;
35022;SDS011;21214;44.912;8.204;2022-08-01T08:07:20;2.40;;;1.92;;
35022;SDS011;21214;44.912;8.204;2022-08-01T08:09:45;3.92;;;2.92;;
35022;SDS011;21214;44.912;8.204;2022-08-01T08:12:11;2.65;;;2.35;;
35022;SDS011;21214;44.912;8.204;2022-08-01T08:14:37;2.67;;;2.10;;
35022;SDS011;21214;44.912;8.204;2022-08-01T08:17:03;3.55;;;1.83;;
35022;SDS011;21214;44.912;8.204;2022-08-01T08:19:30;3.33;;;2.20;;
35022;SDS011;21214;44.912;8.204;2022-08-01T08:21:58;2.40;;;2.20;;
35022;SDS011;21214;44.912;8.204;2022-08-01T08:24:24;2.55;;;2.35;;
35022;SDS011;21214;44.912;8.204;2022-08-01T08:26:52;3.58;;;1.95;;
35022;SDS011;21214;44.912;8.204;2022-08-01T08:29:20;6.55;;;2.53;;
35022;SDS011;21214;44.912;8.204;2022-08-01T08:31:47;4.88;;;2.72;;
35022;SDS011;21214;44.912;8.204;2022-08-01T08:34:12;3.13;;;2.08;;
35022;SDS011;21214;44.912;8.204;2022-08-01T08:36:38;2.95;;;2.20;;
35022;SDS011;21214;44.912;8.204;2022-08-01T08:39:04;4.35;;;2.13;;
35022;SDS011;21214;44.912;8.204;2022-08-01T08:41:30;2.25;;;2.05;;
35022;SDS011;21214;44.912;8.204;2022-08-01T08:44:02;4.80;;;1.90;;
35022;SDS011;21214;44.912;8.204;2022-08-01T08:46:32;2.55;;;2.17;;
35022;SDS011;21214;44.912;8.204;2022-08-01T08:49:00;2.28;;;2.08;;
35022;SDS011;21214;44.912;8.204;2022-08-01T08:51:27;3.25;;;2.08;;
35022;SDS011;21214;44.912;8.204;2022-08-01T08:53:56;3.88;;;2.03;;
35022;SDS011;21214;44.912;8.204;2022-08-01T08:56:23;1.92;;;1.83;;
35022;SDS011;21214;44.912;8.204;2022-08-01T08:58:50;2.00;;;1.80;;
35022;SDS011;21214;44.912;8.204;2022-08-01T09:01:16;2.03;;;1.77;;
35022;SDS011;21214;44.912;8.204;2022-08-01T09:03:43;2.10;;;1.83;;
35022;SDS011;21214;44.912;8.204;2022-08-01T09:06:09;3.58;;;1.80;;
35022;SDS011;21214;44.912;8.204;2022-08-01T09:08:35;4.15;;;1.80;;
35022;SDS011;21214;44.912;8.204;2022-08-01T09:11:01;2.65;;;1.90;;
35022;SDS011;21214;44.912;8.204;2022-08-01T09:13:27;2.60;;;1.73;;
35022;SDS011;21214;44.912;8.204;2022-08-01T09:15:53;2.78;;;1.98;;
35022;SDS011;21214;44.912;8.204;2022-08-01T09:21:27;3.38;;;1.80;;
35022;SDS011;21214;44.912;8.204;2022-08-01T09:23:53;6.32;;;1.80;;
35022;SDS011;21214;44.912;8.204;2022-08-01T09:26:28;2.35;;;1.50;;
35022;SDS011;21214;44.912;8.204;2022-08-01T09:28:55;3.38;;;1.40;;
35022;SDS011;21214;44.912;8.204;2022-08-01T09:31:20;2.47;;;1.95;;
35022;SDS011;21214;44.912;8.204;2022-08-01T09:34:04;2.58;;;2.03;;
35022;SDS011;21214;44.912;8.204;2022-08-01T09:39:20;1.60;;;1.50;;
35022;SDS011;21214;44.912;8.204;2022-08-01T09:41:48;2.75;;;1.38;;
35022;SDS011;21214;44.912;8.204;2022-08-01T09:44:14;2.03;;;1.92;;
35022;SDS011;21214;44.912;8.204;2022-08-01T09:47:16;1.80;;;1.70;;
35022;SDS011;21214;44.912;8.204;2022-08-01T09:49:36;1.80;;;1.30;;
35022;SDS011;21214;44.912;8.204;2022-08-01T09:52:13;1.88;;;1.77;;
35022;SDS011;21214;44.912;8.204;2022-08-01T09:54:41;1.65;;;1.55;;
35022;SDS011;21214;44.912;8.204;2022-08-01T09:57:15;2.30;;;1.88;;
35022;SDS011;21214;44.912;8.204;2022-08-01T09:59:43;2.47;;;1.85;;
35022;SDS011;21214;44.912;8.204;2022-08-01T10:02:12;3.20;;;2.03;;
35022;SDS011;21214;44.912;8.204;2022-08-01T10:04:50;2.17;;;1.63;;
35022;SDS011;21214;44.912;8.204;2022-08-01T10:07:17;1.98;;;1.73;;
35022;SDS011;21214;44.912;8.204;2022-08-01T10:09:44;6.72;;;2.30;;
35022;SDS011;21214;44.912;8.204;2022-08-01T10:12:12;3.45;;;2.05;;
35022;SDS011;21214;44.912;8.204;2022-08-01T10:14:42;2.17;;;1.80;;
35022;SDS011;21214;44.912;8.204;2022-08-01T10:17:12;3.97;;;1.63;;
35022;SDS011;21214;44.912;8.204;2022-08-01T10:19:39;3.15;;;1.60;;
35022;SDS011;21214;44.912;8.204;2022-08-01T10:22:10;1.95;;;1.70;;
35022;SDS011;21214;44.912;8.204;2022-08-01T10:24:43;1.50;;;1.33;;
35022;SDS011;21214;44.912;8.204;2022-08-01T10:27:13;2.38;;;1.40;;
35022;SDS011;21214;44.912;8.204;2022-08-01T10:29:57;3.85;;;1.83;;
35022;SDS011;21214;44.912;8.204;2022-08-01T10:32:31;5.65;;;1.63;;
35022;SDS011;21214;44.912;8.204;2022-08-01T10:34:58;1.70;;;1.60;;
35022;SDS011;21214;44.912;8.204;2022-08-01T10:37:35;5.03;;;1.67;;
35022;SDS011;21214;44.912;8.204;2022-08-01T10:40:01;2.00;;;1.30;;
35022;SDS011;21214;44.912;8.204;2022-08-01T10:42:27;1.60;;;1.50;;
35022;SDS011;21214;44.912;8.204;2022-08-01T10:44:53;2.05;;;1.83;;
35022;SDS011;21214;44.912;8.204;2022-08-01T10:47:33;4.00;;;1.52;;
35022;SDS011;21214;44.912;8.204;2022-08-01T10:50:13;2.85;;;1.88;;
35022;SDS011;21214;44.912;8.204;2022-08-01T10:53:03;1.67;;;1.58;;
35022;SDS011;21214;44.912;8.204;2022-08-01T10:56:18;2.10;;;1.37;;
35022;SDS011;21214;44.912;8.204;2022-08-01T11:04:09;4.45;;;1.30;;
35022;SDS011;21214;44.912;8.204;2022-08-01T11:09:00;1.30;;;1.20;;
35022;SDS011;21214;44.912;8.204;2022-08-01T11:14:27;2.50;;;1.17;;
35022;SDS011;21214;44.912;8.204;2022-08-01T11:16:52;1.10;;;1.00;;
35022;SDS011;21214;44.912;8.204;2022-08-01T11:19:18;2.78;;;0.95;;
35022;SDS011;21214;44.912;8.204;2022-08-01T11:21:57;1.70;;;1.35;;
35022;SDS011;21214;44.912;8.204;2022-08-01T11:27:19;1.17;;;1.17;;
35022;SDS011;21214;44.912;8.204;2022-08-01T11:35:13;1.20;;;1.10;;
35022;SDS011;21214;44.912;8.204;2022-08-01T11:37:39;2.05;;;1.23;;
35022;SDS011;21214;44.912;8.204;2022-08-01T11:40:24;1.08;;;0.98;;
35022;SDS011;21214;44.912;8.204;2022-08-01T11:45:49;3.33;;;1.42;;
35022;SDS011;21214;44.912;8.204;2022-08-01T11:48:24;1.60;;;1.50;;
35022;SDS011;21214;44.912;8.204;2022-08-01T11:50:52;1.23;;;1.20;;
35022;SDS011;21214;44.912;8.204;2022-08-01T11:53:19;1.50;;;1.40;;
35022;SDS011;21214;44.912;8.204;2022-08-01T11:55:46;1.83;;;0.95;;
35022;SDS011;21214;44.912;8.204;2022-08-01T11:58:13;1.83;;;1.25;;
35022;SDS011;21214;44.912;8.204;2022-08-01T12:00:40;1.02;;;0.90;;
35022;SDS011;21214;44.912;8.204;2022-08-01T12:03:06;1.75;;;1.10;;
35022;SDS011;21214;44.912;8.204;2022-08-01T12:05:34;1.25;;;0.98;;
35022;SDS011;21214;44.912;8.204;2022-08-01T12:08:02;1.80;;;1.00;;
35022;SDS011;21214;44.912;8.204;2022-08-01T12:10:29;1.25;;;1.15;;
35022;SDS011;21214;44.912;8.204;2022-08-01T12:13:02;2.05;;;1.10;;
35022;SDS011;21214;44.912;8.204;2022-08-01T12:15:30;3.00;;;1.00;;
35022;SDS011;21214;44.912;8.204;2022-08-01T12:18:01;1.73;;;1.10;;
35022;SDS011;21214;44.912;8.204;2022-08-01T12:20:30;1.30;;;1.20;;
35022;SDS011;21214;44.912;8.204;2022-08-01T12:23:02;2.50;;;0.93;;
35022;SDS011;21214;44.912;8.204;2022-08-01T12:25:31;1.27;;;0.90;;
35022;SDS011;21214;44.912;8.204;2022-08-01T12:28:03;1.88;;;1.20;;
35022;SDS011;21214;44.912;8.204;2022-08-01T12:30:30;1.25;;;1.17;;
35022;SDS011;21214;44.912;8.204;2022-08-01T12:32:56;1.55;;;1.10;;
35022;SDS011;21214;44.912;8.204;2022-08-01T12:35:26;1.33;;;1.25;;
35022;SDS011;21214;44.912;8.204;2022-08-01T12:37:53;2.47;;;0.80;;
35022;SDS011;21214;44.912;8.204;2022-08-01T12:40:28;3.45;;;1.27;;
35022;SDS011;21214;44.912;8.204;2022-08-01T12:42:59;1.25;;;1.13;;
35022;SDS011;21214;44.912;8.204;2022-08-01T12:45:28;1.50;;;0.90;;
35022;SDS011;21214;44.912;8.204;2022-08-01T12:48:01;0.73;;;0.70;;
35022;SDS011;21214;44.912;8.204;2022-08-01T12:50:32;1.10;;;1.00;;
35022;SDS011;21214;44.912;8.204;2022-08-01T12:52:58;1.92;;;1.00;;
35022;SDS011;21214;44.912;8.204;2022-08-01T12:55:25;2.60;;;1.40;;
35022;SDS011;21214;44.912;8.204;2022-08-01T12:58:05;1.38;;;1.27;;
35022;SDS011;21214;44.912;8.204;2022-08-01T13:00:38;2.53;;;1.20;;
35022;SDS011;21214;44.912;8.204;2022-08-01T13:03:07;1.10;;;1.00;;
35022;SDS011;21214;44.912;8.204;2022-08-01T13:08:23;1.42;;;1.30;;
35022;SDS011;21214;44.912;8.204;2022-08-01T13:11:05;1.50;;;1.40;;
35022;SDS011;21214;44.912;8.204;2022-08-01T13:13:49;1.58;;;1.13;;
35022;SDS011;21214;44.912;8.204;2022-08-01T13:16:19;2.80;;;1.17;;
35022;SDS011;21214;44.912;8.204;2022-08-01T13:18:49;2.35;;;1.20;;
35022;SDS011;21214;44.912;8.204;2022-08-01T13:21:26;1.23;;;1.13;;
35022;SDS011;21214;44.912;8.204;2022-08-01T13:29:06;2.10;;;1.45;;
35022;SDS011;21214;44.912;8.204;2022-08-01T13:31:35;1.27;;;1.15;;
35022;SDS011;21214;44.912;8.204;2022-08-01T13:34:02;1.25;;;1.17;;
35022;SDS011;21214;44.912;8.204;2022-08-01T13:36:28;3.17;;;1.23;;
35022;SDS011;21214;44.912;8.204;2022-08-01T13:38:59;2.45;;;1.13;;
35022;SDS011;21214;44.912;8.204;2022-08-01T13:41:45;2.15;;;1.17;;
35022;SDS011;21214;44.912;8.204;2022-08-01T13:44:12;4.18;;;1.10;;
35022;SDS011;21214;44.912;8.204;2022-08-01T13:46:39;1.30;;;1.08;;
35022;SDS011;21214;44.912;8.204;2022-08-01T13:49:06;2.00;;;0.98;;
35022;SDS011;21214;44.912;8.204;2022-08-01T13:51:34;2.30;;;1.05;;
35022;SDS011;21214;44.912;8.204;2022-08-01T13:54:02;1.48;;;0.90;;
35022;SDS011;21214;44.912;8.204;2022-08-01T13:56:28;1.42;;;1.13;;
35022;SDS011;21214;44.912;8.204;2022-08-01T13:58:54;1.30;;;1.20;;
35022;SDS011;21214;44.912;8.204;2022-08-01T14:01:21;2.08;;;1.00;;
35022;SDS011;21214;44.912;8.204;2022-08-01T14:03:47;0.90;;;0.90;;
35022;SDS011;21214;44.912;8.204;2022-08-01T14:06:13;3.50;;;1.05;;
35022;SDS011;21214;44.912;8.204;2022-08-01T14:08:41;1.25;;;1.15;;
35022;SDS011;21214;44.912;8.204;2022-08-01T14:11:08;2.55;;;1.13;;
35022;SDS011;21214;44.912;8.204;2022-08-01T14:13:33;2.30;;;0.95;;
35022;SDS011;21214;44.912;8.204;2022-08-01T14:15:59;1.75;;;0.98;;
35022;SDS011;21214;44.912;8.204;2022-08-01T14:18:25;1.63;;;1.30;;
35022;SDS011;21214;44.912;8.204;2022-08-01T14:20:51;2.30;;;0.80;;
35022;SDS011;21214;44.912;8.204;2022-08-01T14:23:18;0.90;;;0.90;;
35022;SDS011;21214;44.912;8.204;2022-08-01T14:25:43;3.40;;;1.05;;
35022;SDS011;21214;44.912;8.204;2022-08-01T14:28:09;1.17;;;1.00;;
35022;SDS011;21214;44.912;8.204;2022-08-01T14:30:35;2.47;;;0.75;;
35022;SDS011;21214;44.912;8.204;2022-08-01T14:33:01;2.42;;;0.95;;
35022;SDS011;21214;44.912;8.204;2022-08-01T14:35:27;2.25;;;0.98;;
35022;SDS011;21214;44.912;8.204;2022-08-01T14:37:53;1.75;;;0.80;;
35022;SDS011;21214;44.912;8.204;2022-08-01T14:40:18;1.05;;;0.90;;
35022;SDS011;21214;44.912;8.204;2022-08-01T14:42:44;1.88;;;1.48;;
35022;SDS011;21214;44.912;8.204;2022-08-01T14:45:10;2.55;;;1.08;;
35022;SDS011;21214;44.912;8.204;2022-08-01T14:47:37;2.85;;;1.00;;
35022;SDS011;21214;44.912;8.204;2022-08-01T14:50:05;1.40;;;1.02;;
35022;SDS011;21214;44.912;8.204;2022-08-01T14:52:35;1.50;;;0.85;;
35022;SDS011;21214;44.912;8.204;2022-08-01T14:55:02;0.80;;;0.80;;
35022;SDS011;21214;44.912;8.204;2022-08-01T14:57:29;2.58;;;1.00;;
35022;SDS011;21214;44.912;8.204;2022-08-01T14:59:55;1.10;;;0.90;;
35022;SDS011;21214;44.912;8.204;2022-08-01T15:02:21;1.20;;;1.10;;
35022;SDS011;21214;44.912;8.204;2022-08-01T15:04:47;1.73;;;0.85;;
35022;SDS011;21214;44.912;8.204;2022-08-01T15:07:14;3.50;;;1.00;;
35022;SDS011;21214;44.912;8.204;2022-08-01T15:09:40;1.20;;;0.88;;
35022;SDS011;21214;44.912;8.204;2022-08-01T15:12:06;1.13;;;0.80;;
35022;SDS011;21214;44.912;8.204;2022-08-01T15:14:32;1.48;;;0.98;;
35022;SDS011;21214;44.912;8.204;2022-08-01T15:17:13;1.05;;;0.90;;
35022;SDS011;21214;44.912;8.204;2022-08-01T15:19:44;0.98;;;0.98;;
35022;SDS011;21214;44.912;8.204;2022-08-01T15:22:10;2.13;;;1.23;;
35022;SDS011;21214;44.912;8.204;2022-08-01T15:24:36;3.10;;;1.40;;
35022;SDS011;21214;44.912;8.204;2022-08-01T15:27:02;3.30;;;1.00;;
35022;SDS011;21214;44.912;8.204;2022-08-01T15:29:28;1.33;;;1.05;;
35022;SDS011;21214;44.912;8.204;2022-08-01T15:31:54;1.88;;;1.20;;
35022;SDS011;21214;44.912;8.204;2022-08-01T15:34:20;3.20;;;1.00;;
35022;SDS011;21214;44.912;8.204;2022-08-01T15:36:47;0.98;;;0.93;;
35022;SDS011;21214;44.912;8.204;2022-08-01T15:39:13;1.42;;;1.33;;
35022;SDS011;21214;44.912;8.204;2022-08-01T15:41:40;1.55;;;1.20;;